New Enterprise, Pennsylvania
Current Conditions -  °F | °C
As of 9:53 PM on Wednesday 22 Oct 2014 (Local Time) from KAOO Reporting Station
Overcast Overcast  
Wind Chill: 44°   Ceiling: 2000
Heat Index: 47°   Visibility: 10mi
Dew Point: 40°   Wind: 6mph
Humidity: 77%   Direction: 330°NNW
Pressure: 30.08"   Gusts: NA
Location:  40.17°N, 78.41°W
Report Text: KAOO 230153Z AUTO 33005KT 10SM BKN020 OVC026 08/04 A3008 RMK AO2 SLP192 T00830044
Loading
Personal Weather Stations






























Interactive Weather Map
Tropical Storm Tracking
New forecast layout! Learn more

10-Day Weather Forecast

Advertisements
Track Severe Weather on mobile